sensor_id;sensor_type;location;lat;lon;timestamp;P1;durP1;ratioP1;P2;durP2;ratioP2
38089;SDS011;23904;52.322;10.232;2022-12-10T00:01:23;45.92;;;19.80;;
38089;SDS011;23904;52.322;10.232;2022-12-10T00:03:50;49.80;;;20.60;;
38089;SDS011;23904;52.322;10.232;2022-12-10T00:06:17;49.25;;;20.17;;
38089;SDS011;23904;52.322;10.232;2022-12-10T00:08:48;53.90;;;22.95;;
38089;SDS011;23904;52.322;10.232;2022-12-10T00:11:15;52.63;;;21.52;;
38089;SDS011;23904;52.322;10.232;2022-12-10T00:13:43;47.72;;;20.60;;
38089;SDS011;23904;52.322;10.232;2022-12-10T00:16:11;48.65;;;20.58;;
38089;SDS011;23904;52.322;10.232;2022-12-10T00:18:39;57.75;;;23.20;;
38089;SDS011;23904;52.322;10.232;2022-12-10T00:21:06;52.00;;;21.80;;
38089;SDS011;23904;52.322;10.232;2022-12-10T00:23:34;56.00;;;21.33;;
38089;SDS011;23904;52.322;10.232;2022-12-10T00:26:04;54.28;;;22.77;;
38089;SDS011;23904;52.322;10.232;2022-12-10T00:28:36;47.50;;;20.73;;
38089;SDS011;23904;52.322;10.232;2022-12-10T00:31:06;52.78;;;20.98;;
38089;SDS011;23904;52.322;10.232;2022-12-10T00:33:38;53.90;;;21.50;;
38089;SDS011;23904;52.322;10.232;2022-12-10T00:36:04;52.95;;;20.45;;
38089;SDS011;23904;52.322;10.232;2022-12-10T00:38:54;56.58;;;23.27;;
38089;SDS011;23904;52.322;10.232;2022-12-10T00:41:20;52.08;;;21.05;;
38089;SDS011;23904;52.322;10.232;2022-12-10T00:43:46;55.08;;;24.27;;
38089;SDS011;23904;52.322;10.232;2022-12-10T00:46:13;54.55;;;22.77;;
38089;SDS011;23904;52.322;10.232;2022-12-10T00:48:41;50.63;;;21.40;;
38089;SDS011;23904;52.322;10.232;2022-12-10T00:51:09;53.50;;;20.25;;
38089;SDS011;23904;52.322;10.232;2022-12-10T00:53:45;60.25;;;21.95;;
38089;SDS011;23904;52.322;10.232;2022-12-10T00:56:13;56.47;;;22.77;;
38089;SDS011;23904;52.322;10.232;2022-12-10T00:58:42;57.80;;;22.67;;
38089;SDS011;23904;52.322;10.232;2022-12-10T01:03:44;58.08;;;23.55;;
38089;SDS011;23904;52.322;10.232;2022-12-10T01:08:41;51.90;;;21.70;;
38089;SDS011;23904;52.322;10.232;2022-12-10T01:11:09;61.05;;;24.25;;
38089;SDS011;23904;52.322;10.232;2022-12-10T01:13:37;63.63;;;23.05;;
38089;SDS011;23904;52.322;10.232;2022-12-10T01:16:03;60.15;;;23.33;;
38089;SDS011;23904;52.322;10.232;2022-12-10T01:18:31;65.45;;;24.05;;
38089;SDS011;23904;52.322;10.232;2022-12-10T01:21:01;63.35;;;25.83;;
38089;SDS011;23904;52.322;10.232;2022-12-10T01:23:32;57.28;;;23.27;;
38089;SDS011;23904;52.322;10.232;2022-12-10T01:26:08;60.53;;;24.10;;
38089;SDS011;23904;52.322;10.232;2022-12-10T01:28:38;54.83;;;23.90;;
38089;SDS011;23904;52.322;10.232;2022-12-10T01:31:06;52.45;;;21.83;;
38089;SDS011;23904;52.322;10.232;2022-12-10T01:33:36;54.72;;;23.52;;
38089;SDS011;23904;52.322;10.232;2022-12-10T01:36:05;54.45;;;22.55;;
38089;SDS011;23904;52.322;10.232;2022-12-10T01:38:37;58.90;;;22.80;;
38089;SDS011;23904;52.322;10.232;2022-12-10T01:41:03;60.35;;;24.15;;
38089;SDS011;23904;52.322;10.232;2022-12-10T01:43:48;52.90;;;21.88;;
38089;SDS011;23904;52.322;10.232;2022-12-10T01:46:23;52.50;;;21.98;;
38089;SDS011;23904;52.322;10.232;2022-12-10T01:48:55;38.30;;;15.60;;
38089;SDS011;23904;52.322;10.232;2022-12-10T01:51:22;45.15;;;18.73;;
38089;SDS011;23904;52.322;10.232;2022-12-10T01:53:52;49.72;;;21.40;;
38089;SDS011;23904;52.322;10.232;2022-12-10T01:56:19;46.10;;;19.02;;
38089;SDS011;23904;52.322;10.232;2022-12-10T01:58:46;48.25;;;20.70;;
38089;SDS011;23904;52.322;10.232;2022-12-10T02:01:31;52.55;;;20.33;;
38089;SDS011;23904;52.322;10.232;2022-12-10T02:04:31;47.38;;;18.95;;
38089;SDS011;23904;52.322;10.232;2022-12-10T02:07:15;50.33;;;22.30;;
38089;SDS011;23904;52.322;10.232;2022-12-10T02:10:04;53.72;;;20.73;;
38089;SDS011;23904;52.322;10.232;2022-12-10T02:13:01;52.28;;;20.80;;
38089;SDS011;23904;52.322;10.232;2022-12-10T02:18:48;47.87;;;20.37;;
38089;SDS011;23904;52.322;10.232;2022-12-10T02:21:28;48.72;;;18.50;;
38089;SDS011;23904;52.322;10.232;2022-12-10T02:24:09;49.10;;;20.35;;
38089;SDS011;23904;52.322;10.232;2022-12-10T02:29:21;45.20;;;19.63;;
38089;SDS011;23904;52.322;10.232;2022-12-10T02:34:42;52.05;;;21.15;;
38089;SDS011;23904;52.322;10.232;2022-12-10T02:37:14;58.13;;;22.60;;
38089;SDS011;23904;52.322;10.232;2022-12-10T02:40:11;58.85;;;23.20;;
38089;SDS011;23904;52.322;10.232;2022-12-10T02:42:45;51.83;;;20.40;;
38089;SDS011;23904;52.322;10.232;2022-12-10T02:45:14;54.75;;;21.33;;
38089;SDS011;23904;52.322;10.232;2022-12-10T02:47:40;53.05;;;22.02;;
38089;SDS011;23904;52.322;10.232;2022-12-10T02:50:08;50.25;;;21.70;;
38089;SDS011;23904;52.322;10.232;2022-12-10T02:52:35;53.53;;;21.85;;
38089;SDS011;23904;52.322;10.232;2022-12-10T02:55:01;50.50;;;20.52;;
38089;SDS011;23904;52.322;10.232;2022-12-10T02:57:39;49.90;;;21.27;;
38089;SDS011;23904;52.322;10.232;2022-12-10T03:00:25;56.03;;;22.67;;
38089;SDS011;23904;52.322;10.232;2022-12-10T03:08:31;56.75;;;22.67;;
38089;SDS011;23904;52.322;10.232;2022-12-10T03:13:49;52.83;;;21.55;;
38089;SDS011;23904;52.322;10.232;2022-12-10T03:16:24;53.85;;;21.48;;
38089;SDS011;23904;52.322;10.232;2022-12-10T03:18:57;57.13;;;22.40;;
38089;SDS011;23904;52.322;10.232;2022-12-10T03:21:27;60.58;;;23.85;;
38089;SDS011;23904;52.322;10.232;2022-12-10T03:23:55;56.47;;;22.77;;
38089;SDS011;23904;52.322;10.232;2022-12-10T03:26:21;60.05;;;23.92;;
38089;SDS011;23904;52.322;10.232;2022-12-10T03:28:52;61.40;;;23.10;;
38089;SDS011;23904;52.322;10.232;2022-12-10T03:31:25;61.10;;;22.20;;
38089;SDS011;23904;52.322;10.232;2022-12-10T03:33:52;51.63;;;20.98;;
38089;SDS011;23904;52.322;10.232;2022-12-10T03:36:19;55.80;;;21.60;;
38089;SDS011;23904;52.322;10.232;2022-12-10T03:38:46;55.22;;;22.55;;
38089;SDS011;23904;52.322;10.232;2022-12-10T03:41:12;55.40;;;20.40;;
38089;SDS011;23904;52.322;10.232;2022-12-10T03:43:51;51.03;;;20.80;;
38089;SDS011;23904;52.322;10.232;2022-12-10T03:46:22;54.92;;;22.10;;
38089;SDS011;23904;52.322;10.232;2022-12-10T03:48:50;58.28;;;22.10;;
38089;SDS011;23904;52.322;10.232;2022-12-10T03:51:16;51.22;;;20.08;;
38089;SDS011;23904;52.322;10.232;2022-12-10T03:53:43;62.30;;;22.17;;
38089;SDS011;23904;52.322;10.232;2022-12-10T03:56:08;60.17;;;21.67;;
38089;SDS011;23904;52.322;10.232;2022-12-10T03:58:34;58.97;;;24.17;;
38089;SDS011;23904;52.322;10.232;2022-12-10T04:01:01;61.28;;;23.17;;
38089;SDS011;23904;52.322;10.232;2022-12-10T04:03:28;62.10;;;21.92;;
38089;SDS011;23904;52.322;10.232;2022-12-10T04:05:53;61.70;;;21.67;;
38089;SDS011;23904;52.322;10.232;2022-12-10T04:08:19;64.22;;;23.45;;
38089;SDS011;23904;52.322;10.232;2022-12-10T04:10:46;60.75;;;22.73;;
38089;SDS011;23904;52.322;10.232;2022-12-10T04:13:11;63.88;;;23.75;;
38089;SDS011;23904;52.322;10.232;2022-12-10T04:15:56;61.08;;;22.60;;
38089;SDS011;23904;52.322;10.232;2022-12-10T04:18:42;59.10;;;21.17;;
38089;SDS011;23904;52.322;10.232;2022-12-10T04:21:07;55.53;;;21.30;;
38089;SDS011;23904;52.322;10.232;2022-12-10T04:23:51;62.03;;;22.02;;
38089;SDS011;23904;52.322;10.232;2022-12-10T04:26:36;59.45;;;21.75;;
38089;SDS011;23904;52.322;10.232;2022-12-10T04:29:23;58.63;;;22.92;;
38089;SDS011;23904;52.322;10.232;2022-12-10T04:31:52;63.05;;;21.88;;
38089;SDS011;23904;52.322;10.232;2022-12-10T04:34:21;60.33;;;25.25;;
38089;SDS011;23904;52.322;10.232;2022-12-10T04:36:48;69.13;;;25.58;;
38089;SDS011;23904;52.322;10.232;2022-12-10T04:39:14;64.72;;;23.02;;
38089;SDS011;23904;52.322;10.232;2022-12-10T04:41:42;64.90;;;24.05;;
38089;SDS011;23904;52.322;10.232;2022-12-10T04:44:09;75.43;;;25.38;;
38089;SDS011;23904;52.322;10.232;2022-12-10T04:46:36;64.63;;;22.52;;
38089;SDS011;23904;52.322;10.232;2022-12-10T04:49:02;66.15;;;24.65;;
38089;SDS011;23904;52.322;10.232;2022-12-10T04:51:29;70.53;;;26.25;;
38089;SDS011;23904;52.322;10.232;2022-12-10T04:53:55;74.10;;;25.55;;
38089;SDS011;23904;52.322;10.232;2022-12-10T04:56:21;68.45;;;24.33;;
38089;SDS011;23904;52.322;10.232;2022-12-10T04:58:47;66.47;;;23.88;;
38089;SDS011;23904;52.322;10.232;2022-12-10T05:01:13;68.43;;;25.60;;
38089;SDS011;23904;52.322;10.232;2022-12-10T05:03:39;67.10;;;25.02;;
38089;SDS011;23904;52.322;10.232;2022-12-10T05:06:06;70.65;;;24.00;;
38089;SDS011;23904;52.322;10.232;2022-12-10T05:08:35;66.47;;;22.63;;
38089;SDS011;23904;52.322;10.232;2022-12-10T05:11:05;64.40;;;23.27;;
38089;SDS011;23904;52.322;10.232;2022-12-10T05:13:37;65.63;;;24.15;;
38089;SDS011;23904;52.322;10.232;2022-12-10T05:16:04;63.13;;;22.88;;
38089;SDS011;23904;52.322;10.232;2022-12-10T05:18:34;62.17;;;23.38;;
38089;SDS011;23904;52.322;10.232;2022-12-10T05:21:02;61.03;;;23.73;;
38089;SDS011;23904;52.322;10.232;2022-12-10T05:23:31;70.80;;;23.42;;
38089;SDS011;23904;52.322;10.232;2022-12-10T05:25:59;60.03;;;23.73;;
38089;SDS011;23904;52.322;10.232;2022-12-10T05:28:27;66.35;;;23.77;;
38089;SDS011;23904;52.322;10.232;2022-12-10T05:30:55;69.72;;;23.98;;
38089;SDS011;23904;52.322;10.232;2022-12-10T05:33:21;67.15;;;22.58;;
38089;SDS011;23904;52.322;10.232;2022-12-10T05:35:54;66.75;;;23.13;;
38089;SDS011;23904;52.322;10.232;2022-12-10T05:38:25;61.08;;;22.88;;
38089;SDS011;23904;52.322;10.232;2022-12-10T05:40:53;71.25;;;22.48;;
38089;SDS011;23904;52.322;10.232;2022-12-10T05:43:19;71.22;;;24.25;;
38089;SDS011;23904;52.322;10.232;2022-12-10T05:45:45;61.60;;;21.65;;
38089;SDS011;23904;52.322;10.232;2022-12-10T05:48:12;57.60;;;19.85;;
38089;SDS011;23904;52.322;10.232;2022-12-10T05:50:40;61.92;;;23.10;;
38089;SDS011;23904;52.322;10.232;2022-12-10T05:53:06;60.45;;;22.67;;
38089;SDS011;23904;52.322;10.232;2022-12-10T05:55:32;54.97;;;20.27;;
38089;SDS011;23904;52.322;10.232;2022-12-10T05:58:01;64.68;;;22.88;;
38089;SDS011;23904;52.322;10.232;2022-12-10T06:00:27;55.90;;;22.50;;
38089;SDS011;23904;52.322;10.232;2022-12-10T06:02:53;52.42;;;20.45;;
38089;SDS011;23904;52.322;10.232;2022-12-10T06:05:19;52.70;;;18.70;;
38089;SDS011;23904;52.322;10.232;2022-12-10T06:07:45;56.13;;;20.35;;
38089;SDS011;23904;52.322;10.232;2022-12-10T06:10:11;51.45;;;19.42;;
38089;SDS011;23904;52.322;10.232;2022-12-10T06:12:37;56.25;;;20.10;;
38089;SDS011;23904;52.322;10.232;2022-12-10T06:15:04;51.40;;;19.92;;
38089;SDS011;23904;52.322;10.232;2022-12-10T06:17:30;56.53;;;19.02;;
38089;SDS011;23904;52.322;10.232;2022-12-10T06:19:57;53.28;;;20.92;;
38089;SDS011;23904;52.322;10.232;2022-12-10T06:22:22;51.60;;;19.73;;
38089;SDS011;23904;52.322;10.232;2022-12-10T06:24:48;52.65;;;19.30;;
38089;SDS011;23904;52.322;10.232;2022-12-10T06:27:14;49.92;;;21.95;;
38089;SDS011;23904;52.322;10.232;2022-12-10T06:29:40;50.20;;;19.13;;
38089;SDS011;23904;52.322;10.232;2022-12-10T06:32:06;58.58;;;20.90;;
38089;SDS011;23904;52.322;10.232;2022-12-10T06:34:31;55.65;;;20.23;;
38089;SDS011;23904;52.322;10.232;2022-12-10T06:36:57;44.50;;;18.30;;
38089;SDS011;23904;52.322;10.232;2022-12-10T06:39:23;43.40;;;17.20;;
38089;SDS011;23904;52.322;10.232;2022-12-10T06:41:48;49.83;;;18.13;;
38089;SDS011;23904;52.322;10.232;2022-12-10T06:44:14;45.75;;;18.25;;
38089;SDS011;23904;52.322;10.232;2022-12-10T06:46:40;42.72;;;18.15;;
38089;SDS011;23904;52.322;10.232;2022-12-10T06:49:06;45.13;;;17.55;;
38089;SDS011;23904;52.322;10.232;2022-12-10T06:51:33;51.08;;;19.70;;
38089;SDS011;23904;52.322;10.232;2022-12-10T06:53:59;50.63;;;20.15;;
38089;SDS011;23904;52.322;10.232;2022-12-10T06:56:25;52.08;;;19.80;;
38089;SDS011;23904;52.322;10.232;2022-12-10T06:58:50;50.08;;;19.27;;
38089;SDS011;23904;52.322;10.232;2022-12-10T07:01:17;52.03;;;20.27;;
38089;SDS011;23904;52.322;10.232;2022-12-10T07:03:50;51.05;;;20.13;;
38089;SDS011;23904;52.322;10.232;2022-12-10T07:06:18;52.83;;;21.00;;
38089;SDS011;23904;52.322;10.232;2022-12-10T07:08:45;55.65;;;22.13;;
38089;SDS011;23904;52.322;10.232;2022-12-10T07:11:13;56.58;;;23.10;;
38089;SDS011;23904;52.322;10.232;2022-12-10T07:13:40;58.00;;;21.70;;
38089;SDS011;23904;52.322;10.232;2022-12-10T07:16:13;71.72;;;24.02;;
38089;SDS011;23904;52.322;10.232;2022-12-10T07:18:47;56.38;;;22.42;;
38089;SDS011;23904;52.322;10.232;2022-12-10T07:23:50;66.18;;;24.83;;
38089;SDS011;23904;52.322;10.232;2022-12-10T07:26:22;57.28;;;23.88;;
38089;SDS011;23904;52.322;10.232;2022-12-10T07:28:59;59.45;;;23.50;;
38089;SDS011;23904;52.322;10.232;2022-12-10T07:31:27;71.68;;;25.70;;
38089;SDS011;23904;52.322;10.232;2022-12-10T07:33:53;59.45;;;23.55;;
38089;SDS011;23904;52.322;10.232;2022-12-10T07:36:20;66.25;;;25.88;;
38089;SDS011;23904;52.322;10.232;2022-12-10T07:38:48;72.05;;;26.92;;
38089;SDS011;23904;52.322;10.232;2022-12-10T07:41:15;70.50;;;26.98;;
38089;SDS011;23904;52.322;10.232;2022-12-10T07:43:41;83.10;;;28.73;;
38089;SDS011;23904;52.322;10.232;2022-12-10T07:46:10;66.60;;;26.70;;
38089;SDS011;23904;52.322;10.232;2022-12-10T07:48:36;63.67;;;25.52;;
38089;SDS011;23904;52.322;10.232;2022-12-10T07:51:03;70.10;;;28.30;;
38089;SDS011;23904;52.322;10.232;2022-12-10T07:53:30;69.80;;;28.17;;
38089;SDS011;23904;52.322;10.232;2022-12-10T07:55:57;65.30;;;28.85;;
38089;SDS011;23904;52.322;10.232;2022-12-10T07:58:23;67.07;;;24.60;;
38089;SDS011;23904;52.322;10.232;2022-12-10T08:00:49;64.25;;;23.40;;
38089;SDS011;23904;52.322;10.232;2022-12-10T08:03:14;55.63;;;22.50;;
38089;SDS011;23904;52.322;10.232;2022-12-10T08:05:40;48.97;;;21.02;;
38089;SDS011;23904;52.322;10.232;2022-12-10T08:08:06;61.83;;;25.02;;
38089;SDS011;23904;52.322;10.232;2022-12-10T08:10:38;58.33;;;24.30;;
38089;SDS011;23904;52.322;10.232;2022-12-10T08:13:04;63.33;;;24.58;;
38089;SDS011;23904;52.322;10.232;2022-12-10T08:15:31;62.75;;;24.70;;
38089;SDS011;23904;52.322;10.232;2022-12-10T08:17:57;57.58;;;23.27;;
38089;SDS011;23904;52.322;10.232;2022-12-10T08:20:23;55.15;;;23.40;;
38089;SDS011;23904;52.322;10.232;2022-12-10T08:22:49;62.75;;;25.02;;
38089;SDS011;23904;52.322;10.232;2022-12-10T08:25:16;54.47;;;24.02;;
38089;SDS011;23904;52.322;10.232;2022-12-10T08:27:41;51.15;;;20.58;;
38089;SDS011;23904;52.322;10.232;2022-12-10T08:30:07;47.03;;;19.55;;
38089;SDS011;23904;52.322;10.232;2022-12-10T08:32:34;44.80;;;19.23;;
38089;SDS011;23904;52.322;10.232;2022-12-10T08:35:00;40.55;;;19.08;;
38089;SDS011;23904;52.322;10.232;2022-12-10T08:37:25;38.05;;;17.50;;
38089;SDS011;23904;52.322;10.232;2022-12-10T08:39:51;44.17;;;18.67;;
38089;SDS011;23904;52.322;10.232;2022-12-10T08:42:17;40.78;;;17.73;;
38089;SDS011;23904;52.322;10.232;2022-12-10T08:44:43;43.20;;;17.50;;
38089;SDS011;23904;52.322;10.232;2022-12-10T08:47:08;41.20;;;18.00;;
38089;SDS011;23904;52.322;10.232;2022-12-10T08:49:34;38.65;;;16.55;;
38089;SDS011;23904;52.322;10.232;2022-12-10T08:52:00;36.65;;;16.50;;
38089;SDS011;23904;52.322;10.232;2022-12-10T08:54:25;40.78;;;15.07;;
38089;SDS011;23904;52.322;10.232;2022-12-10T08:56:51;38.40;;;17.77;;
38089;SDS011;23904;52.322;10.232;2022-12-10T08:59:16;45.67;;;18.20;;
38089;SDS011;23904;52.322;10.232;2022-12-10T09:01:42;38.30;;;14.90;;
38089;SDS011;23904;52.322;10.232;2022-12-10T09:04:08;30.83;;;13.73;;
38089;SDS011;23904;52.322;10.232;2022-12-10T09:06:34;35.60;;;16.50;;
38089;SDS011;23904;52.322;10.232;2022-12-10T09:09:00;36.83;;;16.35;;
38089;SDS011;23904;52.322;10.232;2022-12-10T09:11:28;33.20;;;15.35;;
38089;SDS011;23904;52.322;10.232;2022-12-10T09:13:57;39.58;;;16.70;;
38089;SDS011;23904;52.322;10.232;2022-12-10T09:16:30;36.70;;;16.42;;
38089;SDS011;23904;52.322;10.232;2022-12-10T09:18:58;37.67;;;16.08;;
38089;SDS011;23904;52.322;10.232;2022-12-10T09:21:25;38.33;;;15.93;;
38089;SDS011;23904;52.322;10.232;2022-12-10T09:23:52;51.08;;;20.17;;
38089;SDS011;23904;52.322;10.232;2022-12-10T09:26:18;46.90;;;18.08;;
38089;SDS011;23904;52.322;10.232;2022-12-10T09:28:45;49.00;;;19.23;;
38089;SDS011;23904;52.322;10.232;2022-12-10T09:31:12;50.83;;;19.80;;
38089;SDS011;23904;52.322;10.232;2022-12-10T09:33:40;45.28;;;19.33;;
38089;SDS011;23904;52.322;10.232;2022-12-10T09:36:07;46.25;;;19.25;;
38089;SDS011;23904;52.322;10.232;2022-12-10T09:38:35;44.97;;;17.77;;
38089;SDS011;23904;52.322;10.232;2022-12-10T09:43:58;40.25;;;17.80;;
38089;SDS011;23904;52.322;10.232;2022-12-10T09:47:10;40.33;;;16.15;;
38089;SDS011;23904;52.322;10.232;2022-12-10T09:52:54;47.40;;;19.65;;
38089;SDS011;23904;52.322;10.232;2022-12-10T09:55:26;46.75;;;20.50;;
38089;SDS011;23904;52.322;10.232;2022-12-10T09:58:14;43.55;;;21.88;;
38089;SDS011;23904;52.322;10.232;2022-12-10T10:00:44;43.83;;;17.70;;
38089;SDS011;23904;52.322;10.232;2022-12-10T10:03:22;38.42;;;15.55;;
38089;SDS011;23904;52.322;10.232;2022-12-10T10:05:49;40.78;;;17.77;;
38089;SDS011;23904;52.322;10.232;2022-12-10T10:08:34;42.10;;;17.60;;
38089;SDS011;23904;52.322;10.232;2022-12-10T10:11:12;42.33;;;16.10;;
38089;SDS011;23904;52.322;10.232;2022-12-10T10:13:50;39.95;;;17.20;;
38089;SDS011;23904;52.322;10.232;2022-12-10T10:19:15;55.22;;;20.63;;
38089;SDS011;23904;52.322;10.232;2022-12-10T10:21:45;46.20;;;19.23;;
38089;SDS011;23904;52.322;10.232;2022-12-10T10:24:15;47.97;;;20.52;;
38089;SDS011;23904;52.322;10.232;2022-12-10T10:26:44;45.00;;;19.95;;
38089;SDS011;23904;52.322;10.232;2022-12-10T10:29:15;39.80;;;18.95;;
38089;SDS011;23904;52.322;10.232;2022-12-10T10:31:44;45.08;;;18.98;;
38089;SDS011;23904;52.322;10.232;2022-12-10T10:34:27;39.63;;;16.65;;
38089;SDS011;23904;52.322;10.232;2022-12-10T10:36:56;47.42;;;19.65;;
38089;SDS011;23904;52.322;10.232;2022-12-10T10:41:54;42.95;;;19.25;;
38089;SDS011;23904;52.322;10.232;2022-12-10T10:44:24;46.10;;;18.48;;
38089;SDS011;23904;52.322;10.232;2022-12-10T10:46:54;38.85;;;17.75;;
38089;SDS011;23904;52.322;10.232;2022-12-10T10:49:25;39.78;;;17.08;;
38089;SDS011;23904;52.322;10.232;2022-12-10T10:51:58;29.77;;;12.88;;
38089;SDS011;23904;52.322;10.232;2022-12-10T10:54:32;41.75;;;17.38;;
38089;SDS011;23904;52.322;10.232;2022-12-10T10:57:04;37.80;;;16.23;;
38089;SDS011;23904;52.322;10.232;2022-12-10T10:59:48;45.45;;;20.00;;
38089;SDS011;23904;52.322;10.232;2022-12-10T11:02:20;41.55;;;17.10;;
38089;SDS011;23904;52.322;10.232;2022-12-10T11:04:54;39.50;;;17.48;;
38089;SDS011;23904;52.322;10.232;2022-12-10T11:07:37;41.00;;;17.13;;
38089;SDS011;23904;52.322;10.232;2022-12-10T11:13:19;38.92;;;17.98;;
38089;SDS011;23904;52.322;10.232;2022-12-10T11:16:38;40.40;;;18.35;;
38089;SDS011;23904;52.322;10.232;2022-12-10T11:18:54;36.88;;;17.45;;
38089;SDS011;23904;52.322;10.232;2022-12-10T11:21:27;40.00;;;18.15;;
38089;SDS011;23904;52.322;10.232;2022-12-10T11:23:58;43.03;;;18.67;;
38089;SDS011;23904;52.322;10.232;2022-12-10T11:32:39;40.65;;;18.90;;
38089;SDS011;23904;52.322;10.232;2022-12-10T11:38:06;42.70;;;19.90;;
38089;SDS011;23904;52.322;10.232;2022-12-10T11:44:10;41.90;;;18.35;;
38089;SDS011;23904;52.322;10.232;2022-12-10T11:49:21;53.40;;;19.38;;
38089;SDS011;23904;52.322;10.232;2022-12-10T11:52:12;36.80;;;18.55;;
38089;SDS011;23904;52.322;10.232;2022-12-10T12:01:09;41.42;;;19.85;;
38089;SDS011;23904;52.322;10.232;2022-12-10T12:03:54;44.90;;;19.05;;
38089;SDS011;23904;52.322;10.232;2022-12-10T12:15:11;44.67;;;20.58;;
38089;SDS011;23904;52.322;10.232;2022-12-10T12:17:55;37.47;;;19.08;;
38089;SDS011;23904;52.322;10.232;2022-12-10T12:20:38;44.63;;;21.50;;
38089;SDS011;23904;52.322;10.232;2022-12-10T12:28:43;46.22;;;20.60;;
38089;SDS011;23904;52.322;10.232;2022-12-10T12:31:22;44.03;;;21.15;;
38089;SDS011;23904;52.322;10.232;2022-12-10T12:33:59;45.80;;;20.48;;
38089;SDS011;23904;52.322;10.232;2022-12-10T12:36:32;46.67;;;21.60;;
38089;SDS011;23904;52.322;10.232;2022-12-10T12:47:47;50.45;;;21.35;;
38089;SDS011;23904;52.322;10.232;2022-12-10T12:50:44;43.50;;;19.67;;
38089;SDS011;23904;52.322;10.232;2022-12-10T12:53:20;44.47;;;19.10;;
38089;SDS011;23904;52.322;10.232;2022-12-10T12:55:50;44.90;;;18.35;;
38089;SDS011;23904;52.322;10.232;2022-12-10T13:01:39;46.90;;;20.08;;
38089;SDS011;23904;52.322;10.232;2022-12-10T13:04:07;40.63;;;19.77;;
38089;SDS011;23904;52.322;10.232;2022-12-10T13:06:34;37.97;;;17.73;;
38089;SDS011;23904;52.322;10.232;2022-12-10T13:17:32;41.58;;;18.85;;
38089;SDS011;23904;52.322;10.232;2022-12-10T13:22:58;35.97;;;16.48;;
38089;SDS011;23904;52.322;10.232;2022-12-10T13:25:41;39.03;;;16.20;;
38089;SDS011;23904;52.322;10.232;2022-12-10T13:33:46;35.03;;;15.93;;
38089;SDS011;23904;52.322;10.232;2022-12-10T13:36:27;34.25;;;15.70;;
38089;SDS011;23904;52.322;10.232;2022-12-10T13:44:49;39.20;;;17.58;;
38089;SDS011;23904;52.322;10.232;2022-12-10T13:50:17;36.65;;;16.92;;
38089;SDS011;23904;52.322;10.232;2022-12-10T13:55:48;36.80;;;16.88;;
38089;SDS011;23904;52.322;10.232;2022-12-10T14:01:37;38.97;;;19.20;;
38089;SDS011;23904;52.322;10.232;2022-12-10T14:04:52;34.58;;;17.27;;
38089;SDS011;23904;52.322;10.232;2022-12-10T14:07:28;36.20;;;18.02;;
38089;SDS011;23904;52.322;10.232;2022-12-10T14:09:56;43.50;;;18.48;;
38089;SDS011;23904;52.322;10.232;2022-12-10T14:12:25;39.92;;;17.85;;
38089;SDS011;23904;52.322;10.232;2022-12-10T14:15:05;37.78;;;20.13;;
38089;SDS011;23904;52.322;10.232;2022-12-10T14:17:40;40.60;;;18.38;;
38089;SDS011;23904;52.322;10.232;2022-12-10T14:20:11;39.30;;;18.35;;
38089;SDS011;23904;52.322;10.232;2022-12-10T14:22:46;36.58;;;16.65;;
38089;SDS011;23904;52.322;10.232;2022-12-10T14:25:18;39.42;;;17.65;;
38089;SDS011;23904;52.322;10.232;2022-12-10T14:27:47;32.20;;;15.85;;
38089;SDS011;23904;52.322;10.232;2022-12-10T14:30:22;41.42;;;20.17;;
38089;SDS011;23904;52.322;10.232;2022-12-10T14:32:54;41.92;;;18.38;;
38089;SDS011;23904;52.322;10.232;2022-12-10T14:35:24;37.83;;;17.75;;
38089;SDS011;23904;52.322;10.232;2022-12-10T14:37:54;39.30;;;18.42;;
38089;SDS011;23904;52.322;10.232;2022-12-10T14:40:57;42.72;;;17.98;;
38089;SDS011;23904;52.322;10.232;2022-12-10T14:43:20;41.03;;;19.92;;
38089;SDS011;23904;52.322;10.232;2022-12-10T14:45:54;40.28;;;17.48;;
38089;SDS011;23904;52.322;10.232;2022-12-10T14:48:26;39.03;;;17.58;;
38089;SDS011;23904;52.322;10.232;2022-12-10T14:50:52;36.40;;;18.27;;
38089;SDS011;23904;52.322;10.232;2022-12-10T14:53:25;45.97;;;18.02;;
38089;SDS011;23904;52.322;10.232;2022-12-10T14:55:53;38.28;;;18.50;;
38089;SDS011;23904;52.322;10.232;2022-12-10T15:01:03;40.55;;;17.92;;
38089;SDS011;23904;52.322;10.232;2022-12-10T15:03:32;40.10;;;19.02;;
38089;SDS011;23904;52.322;10.232;2022-12-10T15:06:05;30.93;;;14.53;;
38089;SDS011;23904;52.322;10.232;2022-12-10T15:08:32;44.50;;;17.85;;
38089;SDS011;23904;52.322;10.232;2022-12-10T15:10:59;37.50;;;17.02;;
38089;SDS011;23904;52.322;10.232;2022-12-10T15:15:57;41.80;;;18.35;;
38089;SDS011;23904;52.322;10.232;2022-12-10T15:21:09;39.83;;;18.63;;
38089;SDS011;23904;52.322;10.232;2022-12-10T15:23:46;44.50;;;20.42;;
38089;SDS011;23904;52.322;10.232;2022-12-10T15:26:18;54.33;;;23.13;;
38089;SDS011;23904;52.322;10.232;2022-12-10T15:28:52;53.42;;;23.92;;
38089;SDS011;23904;52.322;10.232;2022-12-10T15:31:55;52.92;;;24.35;;
38089;SDS011;23904;52.322;10.232;2022-12-10T15:34:47;49.33;;;18.65;;
38089;SDS011;23904;52.322;10.232;2022-12-10T15:39:53;49.58;;;20.33;;
38089;SDS011;23904;52.322;10.232;2022-12-10T15:42:30;48.97;;;20.20;;
38089;SDS011;23904;52.322;10.232;2022-12-10T15:45:18;45.30;;;18.52;;
38089;SDS011;23904;52.322;10.232;2022-12-10T15:47:50;48.13;;;17.70;;
38089;SDS011;23904;52.322;10.232;2022-12-10T15:50:17;41.03;;;17.38;;
38089;SDS011;23904;52.322;10.232;2022-12-10T15:52:43;46.20;;;19.42;;
38089;SDS011;23904;52.322;10.232;2022-12-10T15:55:10;50.33;;;20.00;;
38089;SDS011;23904;52.322;10.232;2022-12-10T15:57:38;47.50;;;18.70;;
38089;SDS011;23904;52.322;10.232;2022-12-10T16:00:25;46.03;;;18.20;;
38089;SDS011;23904;52.322;10.232;2022-12-10T16:02:56;50.08;;;19.08;;
38089;SDS011;23904;52.322;10.232;2022-12-10T16:05:34;44.33;;;19.52;;
38089;SDS011;23904;52.322;10.232;2022-12-10T16:08:05;40.15;;;16.92;;
38089;SDS011;23904;52.322;10.232;2022-12-10T16:10:46;41.03;;;17.40;;
38089;SDS011;23904;52.322;10.232;2022-12-10T16:13:30;40.58;;;17.45;;
38089;SDS011;23904;52.322;10.232;2022-12-10T16:16:00;38.33;;;16.80;;
38089;SDS011;23904;52.322;10.232;2022-12-10T16:18:32;33.73;;;15.80;;
38089;SDS011;23904;52.322;10.232;2022-12-10T16:21:00;35.72;;;15.85;;
38089;SDS011;23904;52.322;10.232;2022-12-10T16:23:27;31.83;;;14.52;;
38089;SDS011;23904;52.322;10.232;2022-12-10T16:25:53;34.25;;;15.10;;
38089;SDS011;23904;52.322;10.232;2022-12-10T16:28:19;32.67;;;15.27;;
38089;SDS011;23904;52.322;10.232;2022-12-10T16:30:48;29.35;;;13.95;;
38089;SDS011;23904;52.322;10.232;2022-12-10T16:33:15;29.98;;;13.32;;
38089;SDS011;23904;52.322;10.232;2022-12-10T16:35:48;27.40;;;12.10;;
38089;SDS011;23904;52.322;10.232;2022-12-10T16:38:16;26.40;;;12.73;;
38089;SDS011;23904;52.322;10.232;2022-12-10T16:40:43;29.15;;;14.68;;